sensor_id;sensor_type;location;lat;lon;timestamp;P1;durP1;ratioP1;P2;durP2;ratioP2
22924;SDS011;11628;51.072;3.712;2022-12-05T00:03:47;50.72;;;28.08;;
22924;SDS011;11628;51.072;3.712;2022-12-05T00:06:14;49.03;;;28.85;;
22924;SDS011;11628;51.072;3.712;2022-12-05T00:08:40;52.45;;;27.48;;
22924;SDS011;11628;51.072;3.712;2022-12-05T00:11:14;51.30;;;29.83;;
22924;SDS011;11628;51.072;3.712;2022-12-05T00:13:42;53.75;;;30.25;;
22924;SDS011;11628;51.072;3.712;2022-12-05T00:16:17;51.63;;;28.65;;
22924;SDS011;11628;51.072;3.712;2022-12-05T00:18:44;47.45;;;27.98;;
22924;SDS011;11628;51.072;3.712;2022-12-05T00:21:12;49.63;;;29.85;;
22924;SDS011;11628;51.072;3.712;2022-12-05T00:23:40;47.75;;;28.63;;
22924;SDS011;11628;51.072;3.712;2022-12-05T00:26:07;48.42;;;29.05;;
22924;SDS011;11628;51.072;3.712;2022-12-05T00:28:34;48.33;;;28.52;;
22924;SDS011;11628;51.072;3.712;2022-12-05T00:31:06;45.83;;;27.92;;
22924;SDS011;11628;51.072;3.712;2022-12-05T00:33:34;49.15;;;29.80;;
22924;SDS011;11628;51.072;3.712;2022-12-05T00:36:03;52.10;;;28.77;;
22924;SDS011;11628;51.072;3.712;2022-12-05T00:38:34;47.88;;;27.65;;
22924;SDS011;11628;51.072;3.712;2022-12-05T00:41:03;52.78;;;30.33;;
22924;SDS011;11628;51.072;3.712;2022-12-05T00:43:33;47.83;;;28.08;;
22924;SDS011;11628;51.072;3.712;2022-12-05T00:46:00;49.58;;;28.35;;
22924;SDS011;11628;51.072;3.712;2022-12-05T00:48:30;51.60;;;29.42;;
22924;SDS011;11628;51.072;3.712;2022-12-05T00:51:04;48.95;;;29.48;;
22924;SDS011;11628;51.072;3.712;2022-12-05T00:53:35;50.58;;;29.08;;
22924;SDS011;11628;51.072;3.712;2022-12-05T00:56:09;48.78;;;28.30;;
22924;SDS011;11628;51.072;3.712;2022-12-05T00:58:36;48.92;;;29.33;;
22924;SDS011;11628;51.072;3.712;2022-12-05T01:01:14;42.78;;;27.33;;
22924;SDS011;11628;51.072;3.712;2022-12-05T01:03:42;45.80;;;27.17;;
22924;SDS011;11628;51.072;3.712;2022-12-05T01:06:10;48.10;;;28.60;;
22924;SDS011;11628;51.072;3.712;2022-12-05T01:08:36;45.30;;;28.73;;
22924;SDS011;11628;51.072;3.712;2022-12-05T01:11:03;45.25;;;26.38;;
22924;SDS011;11628;51.072;3.712;2022-12-05T01:13:30;46.33;;;26.98;;
22924;SDS011;11628;51.072;3.712;2022-12-05T01:15:56;45.45;;;26.83;;
22924;SDS011;11628;51.072;3.712;2022-12-05T01:18:22;45.22;;;26.23;;
22924;SDS011;11628;51.072;3.712;2022-12-05T01:20:48;47.35;;;27.98;;
22924;SDS011;11628;51.072;3.712;2022-12-05T01:23:14;44.35;;;27.63;;
22924;SDS011;11628;51.072;3.712;2022-12-05T01:25:41;45.25;;;26.38;;
22924;SDS011;11628;51.072;3.712;2022-12-05T01:28:08;40.80;;;26.13;;
22924;SDS011;11628;51.072;3.712;2022-12-05T01:30:38;43.35;;;26.02;;
22924;SDS011;11628;51.072;3.712;2022-12-05T01:33:05;44.78;;;27.27;;
22924;SDS011;11628;51.072;3.712;2022-12-05T01:35:32;45.03;;;27.52;;
22924;SDS011;11628;51.072;3.712;2022-12-05T01:37:59;42.17;;;26.02;;
22924;SDS011;11628;51.072;3.712;2022-12-05T01:40:24;42.45;;;26.42;;
22924;SDS011;11628;51.072;3.712;2022-12-05T01:42:51;45.92;;;27.17;;
22924;SDS011;11628;51.072;3.712;2022-12-05T01:45:19;43.75;;;28.20;;
22924;SDS011;11628;51.072;3.712;2022-12-05T01:48:11;44.63;;;26.98;;
22924;SDS011;11628;51.072;3.712;2022-12-05T01:50:44;42.63;;;26.50;;
22924;SDS011;11628;51.072;3.712;2022-12-05T01:53:10;41.85;;;25.73;;
22924;SDS011;11628;51.072;3.712;2022-12-05T01:55:36;39.80;;;26.13;;
22924;SDS011;11628;51.072;3.712;2022-12-05T01:58:04;44.80;;;27.67;;
22924;SDS011;11628;51.072;3.712;2022-12-05T02:00:31;44.17;;;27.52;;
22924;SDS011;11628;51.072;3.712;2022-12-05T02:03:03;42.17;;;25.55;;
22924;SDS011;11628;51.072;3.712;2022-12-05T02:05:34;47.67;;;28.10;;
22924;SDS011;11628;51.072;3.712;2022-12-05T02:08:02;42.88;;;25.67;;
22924;SDS011;11628;51.072;3.712;2022-12-05T02:10:34;43.17;;;26.70;;
22924;SDS011;11628;51.072;3.712;2022-12-05T02:24:21;43.92;;;26.55;;
22924;SDS011;11628;51.072;3.712;2022-12-05T02:29:56;43.85;;;26.77;;
22924;SDS011;11628;51.072;3.712;2022-12-05T02:32:42;42.72;;;26.98;;
22924;SDS011;11628;51.072;3.712;2022-12-05T02:38:12;44.63;;;26.23;;
22924;SDS011;11628;51.072;3.712;2022-12-05T02:40:53;42.75;;;25.98;;
22924;SDS011;11628;51.072;3.712;2022-12-05T02:43:28;45.00;;;26.58;;
22924;SDS011;11628;51.072;3.712;2022-12-05T02:46:03;41.95;;;25.98;;
22924;SDS011;11628;51.072;3.712;2022-12-05T02:48:36;40.58;;;25.85;;
22924;SDS011;11628;51.072;3.712;2022-12-05T02:51:03;42.17;;;27.58;;
22924;SDS011;11628;51.072;3.712;2022-12-05T02:53:31;50.00;;;28.15;;
22924;SDS011;11628;51.072;3.712;2022-12-05T02:56:00;45.75;;;26.75;;
22924;SDS011;11628;51.072;3.712;2022-12-05T02:58:30;47.03;;;27.05;;
22924;SDS011;11628;51.072;3.712;2022-12-05T03:01:09;48.50;;;26.98;;
22924;SDS011;11628;51.072;3.712;2022-12-05T03:03:35;44.50;;;26.70;;
22924;SDS011;11628;51.072;3.712;2022-12-05T03:06:04;44.97;;;26.88;;
22924;SDS011;11628;51.072;3.712;2022-12-05T03:08:43;44.63;;;27.02;;
22924;SDS011;11628;51.072;3.712;2022-12-05T03:11:38;46.65;;;28.00;;
22924;SDS011;11628;51.072;3.712;2022-12-05T03:14:11;47.33;;;27.77;;
22924;SDS011;11628;51.072;3.712;2022-12-05T03:16:43;44.95;;;26.67;;
22924;SDS011;11628;51.072;3.712;2022-12-05T03:19:14;48.85;;;28.10;;
22924;SDS011;11628;51.072;3.712;2022-12-05T03:21:49;46.78;;;27.30;;
22924;SDS011;11628;51.072;3.712;2022-12-05T03:24:20;49.45;;;29.40;;
22924;SDS011;11628;51.072;3.712;2022-12-05T03:29:35;46.47;;;28.02;;
22924;SDS011;11628;51.072;3.712;2022-12-05T03:32:21;50.25;;;29.73;;
22924;SDS011;11628;51.072;3.712;2022-12-05T03:35:21;48.08;;;27.27;;
22924;SDS011;11628;51.072;3.712;2022-12-05T03:37:56;45.85;;;27.55;;
22924;SDS011;11628;51.072;3.712;2022-12-05T03:43:15;47.90;;;28.52;;
22924;SDS011;11628;51.072;3.712;2022-12-05T03:46:03;53.08;;;28.88;;
22924;SDS011;11628;51.072;3.712;2022-12-05T03:51:16;47.95;;;28.38;;
22924;SDS011;11628;51.072;3.712;2022-12-05T03:53:54;49.90;;;29.35;;
22924;SDS011;11628;51.072;3.712;2022-12-05T03:56:30;48.58;;;29.23;;
22924;SDS011;11628;51.072;3.712;2022-12-05T03:59:04;47.95;;;29.30;;
22924;SDS011;11628;51.072;3.712;2022-12-05T04:01:37;51.83;;;29.52;;
22924;SDS011;11628;51.072;3.712;2022-12-05T04:04:09;49.85;;;29.15;;
22924;SDS011;11628;51.072;3.712;2022-12-05T04:06:40;52.75;;;30.55;;
22924;SDS011;11628;51.072;3.712;2022-12-05T04:09:11;51.13;;;29.55;;
22924;SDS011;11628;51.072;3.712;2022-12-05T04:11:50;47.40;;;28.10;;
22924;SDS011;11628;51.072;3.712;2022-12-05T04:14:23;49.58;;;28.90;;
22924;SDS011;11628;51.072;3.712;2022-12-05T04:17:03;52.58;;;30.02;;
22924;SDS011;11628;51.072;3.712;2022-12-05T04:19:46;49.42;;;28.92;;
22924;SDS011;11628;51.072;3.712;2022-12-05T04:22:35;54.03;;;30.45;;
22924;SDS011;11628;51.072;3.712;2022-12-05T04:25:03;50.88;;;30.02;;
22924;SDS011;11628;51.072;3.712;2022-12-05T04:30:39;51.97;;;30.42;;
22924;SDS011;11628;51.072;3.712;2022-12-05T04:33:24;51.42;;;29.92;;
22924;SDS011;11628;51.072;3.712;2022-12-05T04:36:04;52.80;;;30.27;;
22924;SDS011;11628;51.072;3.712;2022-12-05T04:38:50;55.08;;;30.90;;
22924;SDS011;11628;51.072;3.712;2022-12-05T04:41:22;51.50;;;31.02;;
22924;SDS011;11628;51.072;3.712;2022-12-05T04:44:01;54.00;;;30.58;;
22924;SDS011;11628;51.072;3.712;2022-12-05T04:46:31;58.53;;;31.67;;
22924;SDS011;11628;51.072;3.712;2022-12-05T04:48:59;52.15;;;31.65;;
22924;SDS011;11628;51.072;3.712;2022-12-05T04:51:28;49.97;;;30.17;;
22924;SDS011;11628;51.072;3.712;2022-12-05T04:53:57;53.88;;;31.80;;
22924;SDS011;11628;51.072;3.712;2022-12-05T04:56:32;57.22;;;32.85;;
22924;SDS011;11628;51.072;3.712;2022-12-05T04:58:59;58.78;;;32.85;;
22924;SDS011;11628;51.072;3.712;2022-12-05T05:01:26;52.40;;;31.83;;
22924;SDS011;11628;51.072;3.712;2022-12-05T05:03:59;57.55;;;33.47;;
22924;SDS011;11628;51.072;3.712;2022-12-05T05:06:32;59.53;;;31.38;;
22924;SDS011;11628;51.072;3.712;2022-12-05T05:09:01;55.67;;;32.38;;
22924;SDS011;11628;51.072;3.712;2022-12-05T05:11:28;55.05;;;31.15;;
22924;SDS011;11628;51.072;3.712;2022-12-05T05:13:57;53.17;;;31.90;;
22924;SDS011;11628;51.072;3.712;2022-12-05T05:16:24;54.45;;;31.88;;
22924;SDS011;11628;51.072;3.712;2022-12-05T05:18:52;56.70;;;30.83;;
22924;SDS011;11628;51.072;3.712;2022-12-05T05:21:39;55.60;;;31.65;;
22924;SDS011;11628;51.072;3.712;2022-12-05T05:24:05;53.95;;;30.95;;
22924;SDS011;11628;51.072;3.712;2022-12-05T05:26:34;51.08;;;31.13;;
22924;SDS011;11628;51.072;3.712;2022-12-05T05:29:01;47.90;;;29.17;;
22924;SDS011;11628;51.072;3.712;2022-12-05T05:31:27;50.40;;;29.67;;
22924;SDS011;11628;51.072;3.712;2022-12-05T05:33:54;51.97;;;31.05;;
22924;SDS011;11628;51.072;3.712;2022-12-05T05:36:21;50.05;;;30.35;;
22924;SDS011;11628;51.072;3.712;2022-12-05T05:38:49;49.85;;;29.45;;
22924;SDS011;11628;51.072;3.712;2022-12-05T05:41:18;49.55;;;28.40;;
22924;SDS011;11628;51.072;3.712;2022-12-05T05:43:46;47.88;;;28.55;;
22924;SDS011;11628;51.072;3.712;2022-12-05T05:46:13;47.72;;;29.00;;
22924;SDS011;11628;51.072;3.712;2022-12-05T05:48:39;43.75;;;28.08;;
22924;SDS011;11628;51.072;3.712;2022-12-05T05:51:06;45.95;;;27.85;;
22924;SDS011;11628;51.072;3.712;2022-12-05T05:53:33;48.05;;;28.42;;
22924;SDS011;11628;51.072;3.712;2022-12-05T05:56:06;43.15;;;26.85;;
22924;SDS011;11628;51.072;3.712;2022-12-05T05:58:34;43.03;;;27.35;;
22924;SDS011;11628;51.072;3.712;2022-12-05T06:01:04;43.47;;;26.95;;
22924;SDS011;11628;51.072;3.712;2022-12-05T06:03:31;46.90;;;30.25;;
22924;SDS011;11628;51.072;3.712;2022-12-05T06:05:57;50.53;;;29.55;;
22924;SDS011;11628;51.072;3.712;2022-12-05T06:08:24;52.90;;;30.98;;
22924;SDS011;11628;51.072;3.712;2022-12-05T06:10:53;53.45;;;31.27;;
22924;SDS011;11628;51.072;3.712;2022-12-05T06:13:18;52.15;;;32.70;;
22924;SDS011;11628;51.072;3.712;2022-12-05T06:15:44;55.88;;;33.15;;
22924;SDS011;11628;51.072;3.712;2022-12-05T06:18:10;57.05;;;34.88;;
22924;SDS011;11628;51.072;3.712;2022-12-05T06:20:35;53.83;;;31.80;;
22924;SDS011;11628;51.072;3.712;2022-12-05T06:23:01;57.78;;;33.03;;
22924;SDS011;11628;51.072;3.712;2022-12-05T06:25:26;58.05;;;35.40;;
22924;SDS011;11628;51.072;3.712;2022-12-05T06:27:52;56.97;;;34.30;;
22924;SDS011;11628;51.072;3.712;2022-12-05T06:30:18;57.03;;;34.80;;
22924;SDS011;11628;51.072;3.712;2022-12-05T06:32:44;58.95;;;34.67;;
22924;SDS011;11628;51.072;3.712;2022-12-05T06:35:10;59.10;;;34.90;;
22924;SDS011;11628;51.072;3.712;2022-12-05T06:37:42;55.47;;;33.88;;
22924;SDS011;11628;51.072;3.712;2022-12-05T06:40:08;62.80;;;34.80;;
22924;SDS011;11628;51.072;3.712;2022-12-05T06:42:37;62.33;;;35.45;;
22924;SDS011;11628;51.072;3.712;2022-12-05T06:45:03;58.67;;;34.65;;
22924;SDS011;11628;51.072;3.712;2022-12-05T06:47:30;55.75;;;33.55;;
22924;SDS011;11628;51.072;3.712;2022-12-05T06:49:56;56.75;;;34.50;;
22924;SDS011;11628;51.072;3.712;2022-12-05T06:52:21;59.03;;;33.97;;
22924;SDS011;11628;51.072;3.712;2022-12-05T06:54:47;56.45;;;33.67;;
22924;SDS011;11628;51.072;3.712;2022-12-05T06:57:13;56.88;;;33.67;;
22924;SDS011;11628;51.072;3.712;2022-12-05T06:59:38;56.30;;;32.53;;
22924;SDS011;11628;51.072;3.712;2022-12-05T07:02:04;54.38;;;32.42;;
22924;SDS011;11628;51.072;3.712;2022-12-05T07:04:34;54.97;;;31.95;;
22924;SDS011;11628;51.072;3.712;2022-12-05T07:07:00;56.10;;;33.10;;
22924;SDS011;11628;51.072;3.712;2022-12-05T07:09:28;57.42;;;32.50;;
22924;SDS011;11628;51.072;3.712;2022-12-05T07:12:13;51.20;;;31.05;;
22924;SDS011;11628;51.072;3.712;2022-12-05T07:14:41;51.33;;;31.50;;
22924;SDS011;11628;51.072;3.712;2022-12-05T07:17:08;50.10;;;31.60;;
22924;SDS011;11628;51.072;3.712;2022-12-05T07:19:34;53.78;;;32.17;;
22924;SDS011;11628;51.072;3.712;2022-12-05T07:22:00;51.80;;;31.67;;
22924;SDS011;11628;51.072;3.712;2022-12-05T07:24:26;54.58;;;31.33;;
22924;SDS011;11628;51.072;3.712;2022-12-05T07:26:52;55.17;;;31.27;;
22924;SDS011;11628;51.072;3.712;2022-12-05T07:29:17;55.50;;;32.53;;
22924;SDS011;11628;51.072;3.712;2022-12-05T07:31:43;53.55;;;30.67;;
22924;SDS011;11628;51.072;3.712;2022-12-05T07:34:09;51.60;;;31.10;;
22924;SDS011;11628;51.072;3.712;2022-12-05T07:36:35;47.80;;;30.38;;
22924;SDS011;11628;51.072;3.712;2022-12-05T07:39:02;47.75;;;31.73;;
22924;SDS011;11628;51.072;3.712;2022-12-05T07:41:29;51.35;;;31.98;;
22924;SDS011;11628;51.072;3.712;2022-12-05T07:43:57;55.63;;;33.65;;
22924;SDS011;11628;51.072;3.712;2022-12-05T07:46:24;49.85;;;31.85;;
22924;SDS011;11628;51.072;3.712;2022-12-05T07:48:51;50.15;;;30.70;;
22924;SDS011;11628;51.072;3.712;2022-12-05T07:51:18;52.33;;;31.38;;
22924;SDS011;11628;51.072;3.712;2022-12-05T07:53:44;51.58;;;30.75;;
22924;SDS011;11628;51.072;3.712;2022-12-05T07:56:11;49.83;;;30.42;;
22924;SDS011;11628;51.072;3.712;2022-12-05T07:58:41;51.25;;;30.20;;
22924;SDS011;11628;51.072;3.712;2022-12-05T08:01:10;51.25;;;31.02;;
22924;SDS011;11628;51.072;3.712;2022-12-05T08:03:39;50.97;;;30.98;;
22924;SDS011;11628;51.072;3.712;2022-12-05T08:06:06;49.35;;;29.73;;
22924;SDS011;11628;51.072;3.712;2022-12-05T08:08:33;57.20;;;33.95;;
22924;SDS011;11628;51.072;3.712;2022-12-05T08:11:04;46.88;;;30.00;;
22924;SDS011;11628;51.072;3.712;2022-12-05T08:13:32;46.63;;;30.88;;
22924;SDS011;11628;51.072;3.712;2022-12-05T08:16:02;49.03;;;30.13;;
22924;SDS011;11628;51.072;3.712;2022-12-05T08:18:29;50.10;;;29.67;;
22924;SDS011;11628;51.072;3.712;2022-12-05T08:21:00;57.75;;;34.85;;
22924;SDS011;11628;51.072;3.712;2022-12-05T08:23:29;50.47;;;30.50;;
22924;SDS011;11628;51.072;3.712;2022-12-05T08:25:56;52.60;;;32.40;;
22924;SDS011;11628;51.072;3.712;2022-12-05T08:28:26;55.33;;;32.88;;
22924;SDS011;11628;51.072;3.712;2022-12-05T08:30:51;50.78;;;31.35;;
22924;SDS011;11628;51.072;3.712;2022-12-05T08:33:17;49.65;;;31.23;;
22924;SDS011;11628;51.072;3.712;2022-12-05T08:35:43;46.35;;;30.05;;
22924;SDS011;11628;51.072;3.712;2022-12-05T08:38:08;45.35;;;29.55;;
22924;SDS011;11628;51.072;3.712;2022-12-05T08:40:34;53.05;;;31.48;;
22924;SDS011;11628;51.072;3.712;2022-12-05T08:43:00;55.17;;;32.08;;
22924;SDS011;11628;51.072;3.712;2022-12-05T08:45:25;54.03;;;31.20;;
22924;SDS011;11628;51.072;3.712;2022-12-05T08:47:51;52.08;;;31.63;;
22924;SDS011;11628;51.072;3.712;2022-12-05T08:50:17;52.80;;;32.53;;
22924;SDS011;11628;51.072;3.712;2022-12-05T08:52:42;56.97;;;32.53;;
22924;SDS011;11628;51.072;3.712;2022-12-05T08:55:08;53.47;;;32.63;;
22924;SDS011;11628;51.072;3.712;2022-12-05T08:57:34;54.50;;;31.77;;
22924;SDS011;11628;51.072;3.712;2022-12-05T09:00:01;52.60;;;32.17;;
22924;SDS011;11628;51.072;3.712;2022-12-05T09:02:27;54.50;;;31.45;;
22924;SDS011;11628;51.072;3.712;2022-12-05T09:04:53;57.25;;;31.35;;
22924;SDS011;11628;51.072;3.712;2022-12-05T09:07:19;58.08;;;33.25;;
22924;SDS011;11628;51.072;3.712;2022-12-05T09:09:45;52.03;;;34.30;;
22924;SDS011;11628;51.072;3.712;2022-12-05T09:12:10;56.83;;;32.67;;
22924;SDS011;11628;51.072;3.712;2022-12-05T09:14:37;54.63;;;31.35;;
22924;SDS011;11628;51.072;3.712;2022-12-05T09:17:02;53.35;;;32.13;;
22924;SDS011;11628;51.072;3.712;2022-12-05T09:19:28;47.88;;;30.65;;
22924;SDS011;11628;51.072;3.712;2022-12-05T09:21:54;52.38;;;31.10;;
22924;SDS011;11628;51.072;3.712;2022-12-05T09:24:21;48.08;;;30.67;;
22924;SDS011;11628;51.072;3.712;2022-12-05T09:26:47;52.67;;;31.25;;
22924;SDS011;11628;51.072;3.712;2022-12-05T09:29:14;50.63;;;31.10;;
22924;SDS011;11628;51.072;3.712;2022-12-05T09:31:40;47.80;;;30.70;;
22924;SDS011;11628;51.072;3.712;2022-12-05T09:34:09;48.35;;;30.63;;
22924;SDS011;11628;51.072;3.712;2022-12-05T09:36:35;47.53;;;30.85;;
22924;SDS011;11628;51.072;3.712;2022-12-05T09:39:03;47.38;;;29.08;;
22924;SDS011;11628;51.072;3.712;2022-12-05T09:41:53;48.03;;;30.63;;
22924;SDS011;11628;51.072;3.712;2022-12-05T09:47:16;44.28;;;28.50;;
22924;SDS011;11628;51.072;3.712;2022-12-05T09:53:03;46.42;;;29.08;;
22924;SDS011;11628;51.072;3.712;2022-12-05T09:55:43;45.05;;;28.88;;
22924;SDS011;11628;51.072;3.712;2022-12-05T10:00:44;44.13;;;27.67;;
22924;SDS011;11628;51.072;3.712;2022-12-05T10:03:44;42.63;;;28.00;;
22924;SDS011;11628;51.072;3.712;2022-12-05T10:08:50;44.58;;;28.00;;
22924;SDS011;11628;51.072;3.712;2022-12-05T10:11:36;43.88;;;28.00;;
22924;SDS011;11628;51.072;3.712;2022-12-05T10:14:09;44.38;;;28.45;;
22924;SDS011;11628;51.072;3.712;2022-12-05T10:16:46;42.15;;;27.08;;
22924;SDS011;11628;51.072;3.712;2022-12-05T10:19:15;41.95;;;27.70;;
22924;SDS011;11628;51.072;3.712;2022-12-05T10:24:29;42.10;;;28.38;;
22924;SDS011;11628;51.072;3.712;2022-12-05T10:27:03;44.40;;;27.65;;
22924;SDS011;11628;51.072;3.712;2022-12-05T10:29:32;41.40;;;27.77;;
22924;SDS011;11628;51.072;3.712;2022-12-05T10:32:10;41.50;;;27.20;;
22924;SDS011;11628;51.072;3.712;2022-12-05T10:34:44;45.53;;;26.63;;
22924;SDS011;11628;51.072;3.712;2022-12-05T10:37:12;39.50;;;25.98;;
22924;SDS011;11628;51.072;3.712;2022-12-05T10:42:32;38.03;;;25.90;;
22924;SDS011;11628;51.072;3.712;2022-12-05T10:45:00;41.88;;;25.13;;
22924;SDS011;11628;51.072;3.712;2022-12-05T10:47:29;38.78;;;24.98;;
22924;SDS011;11628;51.072;3.712;2022-12-05T10:49:55;37.65;;;25.83;;
22924;SDS011;11628;51.072;3.712;2022-12-05T10:52:24;34.58;;;24.27;;
22924;SDS011;11628;51.072;3.712;2022-12-05T10:54:54;40.28;;;26.27;;
22924;SDS011;11628;51.072;3.712;2022-12-05T10:57:30;36.95;;;25.05;;
22924;SDS011;11628;51.072;3.712;2022-12-05T10:59:56;38.85;;;25.27;;
22924;SDS011;11628;51.072;3.712;2022-12-05T11:02:33;38.42;;;25.67;;
22924;SDS011;11628;51.072;3.712;2022-12-05T11:05:00;36.83;;;25.35;;
22924;SDS011;11628;51.072;3.712;2022-12-05T11:10:26;36.67;;;24.67;;
22924;SDS011;11628;51.072;3.712;2022-12-05T11:12:55;36.05;;;24.35;;
22924;SDS011;11628;51.072;3.712;2022-12-05T11:15:23;37.40;;;24.05;;
22924;SDS011;11628;51.072;3.712;2022-12-05T11:17:54;33.75;;;23.08;;
22924;SDS011;11628;51.072;3.712;2022-12-05T11:22:51;32.55;;;22.63;;
22924;SDS011;11628;51.072;3.712;2022-12-05T11:27:47;29.45;;;21.20;;
22924;SDS011;11628;51.072;3.712;2022-12-05T11:32:41;32.67;;;21.85;;
22924;SDS011;11628;51.072;3.712;2022-12-05T11:35:27;31.65;;;22.50;;
22924;SDS011;11628;51.072;3.712;2022-12-05T11:37:56;32.58;;;21.55;;
22924;SDS011;11628;51.072;3.712;2022-12-05T11:40:43;31.73;;;22.40;;
22924;SDS011;11628;51.072;3.712;2022-12-05T11:46:30;35.70;;;24.02;;
22924;SDS011;11628;51.072;3.712;2022-12-05T11:55:08;34.80;;;23.45;;
22924;SDS011;11628;51.072;3.712;2022-12-05T12:08:25;34.25;;;24.02;;
22924;SDS011;11628;51.072;3.712;2022-12-05T12:11:01;34.40;;;23.00;;
22924;SDS011;11628;51.072;3.712;2022-12-05T12:19:09;35.47;;;24.40;;
22924;SDS011;11628;51.072;3.712;2022-12-05T12:21:58;37.08;;;23.65;;
22924;SDS011;11628;51.072;3.712;2022-12-05T12:27:42;34.85;;;23.00;;
22924;SDS011;11628;51.072;3.712;2022-12-05T12:35:45;37.28;;;23.75;;
22924;SDS011;11628;51.072;3.712;2022-12-05T12:46:52;36.47;;;25.33;;
22924;SDS011;11628;51.072;3.712;2022-12-05T12:49:28;39.58;;;26.27;;
22924;SDS011;11628;51.072;3.712;2022-12-05T12:52:13;40.10;;;26.02;;
22924;SDS011;11628;51.072;3.712;2022-12-05T13:05:38;37.80;;;24.77;;
22924;SDS011;11628;51.072;3.712;2022-12-05T13:08:13;41.10;;;26.02;;
22924;SDS011;11628;51.072;3.712;2022-12-05T13:10:46;41.00;;;26.52;;
22924;SDS011;11628;51.072;3.712;2022-12-05T13:13:33;36.58;;;25.73;;
22924;SDS011;11628;51.072;3.712;2022-12-05T13:16:05;39.25;;;25.33;;
22924;SDS011;11628;51.072;3.712;2022-12-05T13:18:33;41.92;;;26.27;;
22924;SDS011;11628;51.072;3.712;2022-12-05T13:21:04;43.58;;;29.05;;
22924;SDS011;11628;51.072;3.712;2022-12-05T13:23:37;38.08;;;27.65;;
22924;SDS011;11628;51.072;3.712;2022-12-05T13:26:09;43.90;;;29.63;;
22924;SDS011;11628;51.072;3.712;2022-12-05T13:28:47;37.97;;;26.20;;
22924;SDS011;11628;51.072;3.712;2022-12-05T13:31:17;40.22;;;26.65;;
22924;SDS011;11628;51.072;3.712;2022-12-05T13:33:47;44.58;;;30.13;;
22924;SDS011;11628;51.072;3.712;2022-12-05T13:36:20;42.35;;;28.33;;
22924;SDS011;11628;51.072;3.712;2022-12-05T13:39:26;45.00;;;29.02;;
22924;SDS011;11628;51.072;3.712;2022-12-05T13:42:25;49.20;;;33.38;;
22924;SDS011;11628;51.072;3.712;2022-12-05T13:50:45;45.92;;;30.52;;
22924;SDS011;11628;51.072;3.712;2022-12-05T13:53:30;39.03;;;27.00;;
22924;SDS011;11628;51.072;3.712;2022-12-05T14:17:28;43.83;;;29.58;;
22924;SDS011;11628;51.072;3.712;2022-12-05T14:25:51;39.90;;;29.08;;
22924;SDS011;11628;51.072;3.712;2022-12-05T14:34:02;35.85;;;25.27;;
22924;SDS011;11628;51.072;3.712;2022-12-05T14:36:57;35.67;;;22.77;;
22924;SDS011;11628;51.072;3.712;2022-12-05T14:39:39;34.38;;;23.27;;
22924;SDS011;11628;51.072;3.712;2022-12-05T14:42:21;28.45;;;20.77;;
22924;SDS011;11628;51.072;3.712;2022-12-05T14:48:21;26.33;;;20.60;;
22924;SDS011;11628;51.072;3.712;2022-12-05T14:54:03;29.98;;;21.42;;
22924;SDS011;11628;51.072;3.712;2022-12-05T14:56:46;27.98;;;20.70;;
22924;SDS011;11628;51.072;3.712;2022-12-05T15:02:00;31.20;;;22.40;;
22924;SDS011;11628;51.072;3.712;2022-12-05T15:12:24;33.60;;;23.35;;
22924;SDS011;11628;51.072;3.712;2022-12-05T15:17:44;27.33;;;22.20;;
22924;SDS011;11628;51.072;3.712;2022-12-05T15:20:16;29.60;;;21.38;;
22924;SDS011;11628;51.072;3.712;2022-12-05T15:22:49;31.17;;;23.20;;
22924;SDS011;11628;51.072;3.712;2022-12-05T15:25:22;34.22;;;25.75;;
22924;SDS011;11628;51.072;3.712;2022-12-05T15:28:00;32.63;;;24.45;;
22924;SDS011;11628;51.072;3.712;2022-12-05T15:30:29;29.70;;;21.45;;
22924;SDS011;11628;51.072;3.712;2022-12-05T15:32:56;32.20;;;23.27;;
22924;SDS011;11628;51.072;3.712;2022-12-05T15:35:23;33.95;;;23.15;;
22924;SDS011;11628;51.072;3.712;2022-12-05T15:38:51;33.70;;;24.33;;
22924;SDS011;11628;51.072;3.712;2022-12-05T15:40:53;36.42;;;26.27;;
22924;SDS011;11628;51.072;3.712;2022-12-05T15:43:26;35.15;;;24.25;;
22924;SDS011;11628;51.072;3.712;2022-12-05T15:46:07;33.42;;;24.02;;
22924;SDS011;11628;51.072;3.712;2022-12-05T15:48:52;30.65;;;22.90;;
22924;SDS011;11628;51.072;3.712;2022-12-05T15:51:22;34.38;;;23.48;;
22924;SDS011;11628;51.072;3.712;2022-12-05T15:54:03;30.60;;;23.50;;
22924;SDS011;11628;51.072;3.712;2022-12-05T15:56:40;32.20;;;24.35;;
22924;SDS011;11628;51.072;3.712;2022-12-05T16:01:40;41.53;;;29.70;;
22924;SDS011;11628;51.072;3.712;2022-12-05T16:04:36;49.95;;;35.17;;
22924;SDS011;11628;51.072;3.712;2022-12-05T16:07:14;35.22;;;25.48;;
22924;SDS011;11628;51.072;3.712;2022-12-05T16:09:41;34.83;;;24.08;;
22924;SDS011;11628;51.072;3.712;2022-12-05T16:12:17;33.30;;;24.40;;
22924;SDS011;11628;51.072;3.712;2022-12-05T16:14:50;38.78;;;28.45;;
22924;SDS011;11628;51.072;3.712;2022-12-05T16:17:19;34.38;;;24.13;;
22924;SDS011;11628;51.072;3.712;2022-12-05T16:19:45;33.67;;;24.30;;
22924;SDS011;11628;51.072;3.712;2022-12-05T16:24:46;38.42;;;27.70;;
22924;SDS011;11628;51.072;3.712;2022-12-05T16:27:26;32.92;;;23.55;;
22924;SDS011;11628;51.072;3.712;2022-12-05T16:32:36;39.35;;;28.60;;
22924;SDS011;11628;51.072;3.712;2022-12-05T16:38:08;35.50;;;25.90;;
22924;SDS011;11628;51.072;3.712;2022-12-05T16:48:39;35.22;;;26.17;;
22924;SDS011;11628;51.072;3.712;2022-12-05T16:51:18;32.30;;;25.45;;
22924;SDS011;11628;51.072;3.712;2022-12-05T16:53:47;42.85;;;32.17;;
22924;SDS011;11628;51.072;3.712;2022-12-05T16:56:26;31.48;;;23.10;;
22924;SDS011;11628;51.072;3.712;2022-12-05T16:58:55;29.08;;;22.45;;
22924;SDS011;11628;51.072;3.712;2022-12-05T17:01:23;27.38;;;21.35;;
22924;SDS011;11628;51.072;3.712;2022-12-05T17:03:50;30.63;;;22.33;;
22924;SDS011;11628;51.072;3.712;2022-12-05T17:06:19;27.92;;;21.25;;
22924;SDS011;11628;51.072;3.712;2022-12-05T17:08:47;27.48;;;21.52;;
22924;SDS011;11628;51.072;3.712;2022-12-05T17:11:14;23.55;;;19.75;;
22924;SDS011;11628;51.072;3.712;2022-12-05T17:13:43;22.95;;;18.73;;
22924;SDS011;11628;51.072;3.712;2022-12-05T17:16:12;23.48;;;18.88;;
22924;SDS011;11628;51.072;3.712;2022-12-05T17:18:42;23.27;;;18.95;;
22924;SDS011;11628;51.072;3.712;2022-12-05T17:21:09;23.60;;;17.88;;
22924;SDS011;11628;51.072;3.712;2022-12-05T17:23:38;21.77;;;18.10;;
22924;SDS011;11628;51.072;3.712;2022-12-05T17:26:04;25.05;;;18.05;;
22924;SDS011;11628;51.072;3.712;2022-12-05T17:28:29;24.02;;;19.00;;
22924;SDS011;11628;51.072;3.712;2022-12-05T17:30:55;24.80;;;19.00;;
22924;SDS011;11628;51.072;3.712;2022-12-05T17:33:21;24.00;;;19.33;;
22924;SDS011;11628;51.072;3.712;2022-12-05T17:35:46;23.17;;;18.17;;
22924;SDS011;11628;51.072;3.712;2022-12-05T17:38:12;20.15;;;16.45;;
22924;SDS011;11628;51.072;3.712;2022-12-05T17:40:38;19.80;;;15.65;;
22924;SDS011;11628;51.072;3.712;2022-12-05T17:43:04;20.92;;;16.95;;
22924;SDS011;11628;51.072;3.712;2022-12-05T17:45:30;23.15;;;17.67;;
22924;SDS011;11628;51.072;3.712;2022-12-05T17:47:57;23.58;;;17.98;;
22924;SDS011;11628;51.072;3.712;2022-12-05T17:50:23;22.48;;;17.00;;
22924;SDS011;11628;51.072;3.712;2022-12-05T17:52:50;23.30;;;17.95;;